James Reserve, California Weather observations

Data are for 10 minute period ending at time listed.
 Day   Time   Solar   Ave.   Ave.  Ave.  Vector  Max.   Baro.   Total    
  of    of     Rad.   Air    Rel.  Wind   Wind   Wind  Press.  Precip.   
Year   Day            Temp.  Hum.  Speed  Dir.   Gust                    
2015   (PST)  Kw/m2    F      %     mph   deg.    mph    mb.     in.     
-------------------------------------------------------------------------
 147    4:00   0.00   38.3    80    0.3    14     0.5   836.0    0.00 
 147    4:10   0.00   38.2    79    0.3    31     0.6   836.0    0.00 
 147    4:20   0.00   37.9    80    0.3    23     0.6   836.0    0.00 
 147    4:30   0.00   37.9    78    0.3     6     0.6   836.0    0.00 
 147    4:40   0.00   37.6    80    0.3    14     0.5   836.0    0.00 
 147    4:50   0.00   37.6    78    0.4    19     0.7   836.0    0.00 
 147    5:00   0.00   37.4    78    0.3    26     0.5   836.0    0.00 
 147    5:10   0.00   37.2    80    0.3    18     0.5   836.0    0.00 
 147    5:20   0.01   37.2    80    0.2     7     0.5   837.0    0.00 
 147    5:30   0.01   37.4    79    0.3    29     0.5   837.0    0.00 
 147    5:40   0.01   37.7    80    0.3    29     0.4   837.0    0.00 
 147    5:50   0.01   37.9    80    0.3    30     0.6   837.0    0.00 
 147    6:00   0.02   38.3    80    0.4    37     0.6   837.0    0.00 
 147    6:10   0.03   38.7    80    0.5    47     0.7   837.0    0.00 
 147    6:20   0.06   39.5    78    0.6    48     0.9   837.0    0.00 
 147    6:30   0.05   40.7    75    0.8    50     1.0   837.0    0.00 
 147    6:40   0.14   41.8    72    0.7    50     0.9   837.0    0.00 
 147    6:50   0.09   42.8    68    0.7    49     0.9   837.0    0.00 
 147    7:00   0.07   43.7    67    0.8    50     1.0   837.0    0.00 
 147    7:10   0.39   44.9    67    0.7    52     1.1   837.0    0.00 
 147    7:20   0.52   46.5    64    0.8    50     1.1   837.0    0.00 
 147    7:30   0.56   48.1    63    0.7    54     1.1   837.0    0.00 
 147    7:40   0.59   50.2    63    0.6    52     1.0   837.0    0.00 
 147    7:50   0.63   51.9    60    0.5    52     0.9   837.0    0.00 
 147    8:00   0.67   53.5    58    0.5    57     1.1   837.0    0.00 
 147    8:10   0.70   56.3    56    0.4    66     1.0   837.0    0.00 
 147    8:20   0.73   58.0    48    0.4    82     0.9   837.0    0.00 
 147    8:30   0.76   60.9    40    0.4    96     1.1   837.0    0.00 
 147    8:40   0.79   63.4    34    0.5   250     1.4   837.0    0.00 
 147    8:50   0.82   64.8    32    0.6   149     2.2   837.0    0.00 
 147    9:00   0.85   66.0    30    0.7   292     1.7   837.0    0.00 
 147    9:10   0.89   67.4    27    0.6   279     1.5   837.0    0.00 
 147    9:20   0.92   65.8    30    0.8   286     2.2   837.0    0.00 
 147    9:30   0.94   66.3    36    0.7   296     2.0   837.0    0.00 
 147    9:40   0.95   67.4    30    0.8   287     1.9   837.0    0.00 
 147    9:50   0.97   67.3    28    1.0   306     2.4   837.0    0.00 
 147   10:00   1.00   66.7    29    0.8   344     2.1   837.0    0.00 
 147   10:10   1.01   67.5    31    0.9   191     2.5   837.0    0.00 
 147   10:20   1.02   66.4    34    1.1   211     2.7   837.0    0.00 
 147   10:30   1.04   66.4    40    1.1   175     3.2   837.0    0.00 
 147   10:40   1.04   65.7    38    1.1   167     2.7   837.0    0.00 
 147   10:50   1.08   66.8    36    0.8   205     1.7   837.0    0.00 
 147   11:00   1.09   66.5    33    1.0   201     2.5   837.0    0.00 
 147   11:10   1.08   67.5    40    0.8   162     3.1   837.0    0.00 
 147   11:20   1.07   68.8    41    0.8   266     2.5   838.0    0.00 
 147   11:30   1.07   67.0    40    1.1   170     2.8   838.0    0.00 
 147   11:40   1.07   67.5    39    0.8   199     2.2   838.0    0.00 
 147   11:50   1.08   67.6    39    0.9   191     2.9   838.0    0.00 
 147   12:00   1.08   67.4    42    1.0   190     3.0   838.0    0.00 
 147   12:10   1.08   68.3    42    1.3   191     3.0   838.0    0.00 
 147   12:20   1.07   68.0    43    0.8   206     3.0   838.0    0.00 
 147   12:30   1.06   67.4    39    1.1   162     3.6   838.0    0.00 
 147   12:40   1.05   67.2    41    1.2   190     2.8   838.0    0.00 
 147   12:50   1.04   66.6    42    1.1   182     3.2   838.0    0.00 
 147   13:00   1.03   67.3    41    1.0   170     2.4   837.0    0.00 
 147   13:10   1.01   67.8    36    1.0   274     2.7   838.0    0.00 
 147   13:20   0.99   67.9    38    0.9   243     2.8   838.0    0.00 
 147   13:30   0.97   68.2    38    0.8   219     3.2   837.0    0.00 
 147   13:40   0.95   67.7    39    1.0   163     2.0   837.0    0.00 
 147   13:50   0.93   67.1    40    0.8   263     2.5   837.0    0.00 
 147   14:00   0.89   66.7    42    1.0   220     1.9   837.0    0.00 
 147   14:10   0.23   66.4    44    1.1   164     2.4   837.0    0.00 
 147   14:20   0.09   65.6    46    1.2   159     4.7   837.0    0.00 
 147   14:30   0.08   64.3    48    1.1   181     3.1   837.0    0.00 
 147   14:40   0.07   63.7    48    1.1   219     2.5   837.0    0.00 
 147   14:50   0.17   63.6    48    0.8   182     2.4   837.0    0.00 
 147   15:00   0.10   63.9    49    1.1   209     2.1   837.0    0.00 
 147   15:10   0.07   63.1    49    0.9   174     2.1   837.0    0.00 
 147   15:20   0.14   63.3    50    1.0   159     3.0   837.0    0.00 
 147   15:30   0.08   63.5    51    0.8   198     1.9   837.0    0.00 
 147   15:40   0.06   63.1    52    0.9   134     2.6   837.0    0.00 
 147   15:50   0.06   63.0    53    0.9   166     2.5   837.0    0.00 
 147   16:00   0.08   62.6    52    0.8   154     2.4   837.0    0.00 
 147   16:10   0.10   62.1    56    0.8   253     1.9   837.0    0.00 
 147   16:20   0.05   61.8    57    0.8   235     2.0   837.0    0.00 
 147   16:30   0.04   61.9    58    0.8   150     2.0   837.0    0.00 
 147   16:40   0.04   61.8    59    0.7   204     1.8   837.0    0.00 
 147   16:50   0.04   61.2    62    0.9   213     2.4   837.0    0.00 
 147   17:00   0.03   60.7    66    0.6   223     1.9   837.0    0.00 
 147   17:10   0.03   60.2    67    0.7   240     1.9   837.0    0.00 
 147   17:20   0.03   59.8    69    0.6   224     1.4   837.0    0.00 
 147   17:30   0.03   59.4    69    0.5   228     2.0   837.0    0.00 
 147   17:40   0.02   58.9    72    0.4   236     1.0   837.0    0.00 
 147   17:50   0.02   58.1    74    0.3   263     1.0   837.0    0.00 
 147   18:00   0.02   57.5    74    0.5   240     1.2   837.0    0.00 
 147   18:10   0.01   56.6    73    0.3   339     0.5   837.0    0.00 
 147   18:20   0.01   55.8    74    0.3     9     0.5   837.0    0.00 
 147   18:30   0.01   55.0    75    0.3    26     0.8   837.0    0.00 
 147   18:40   0.00   54.2    75    0.2    28     0.5   837.0    0.00 
 147   18:50   0.00   53.4    77    0.3     5     0.5   837.0    0.00 
 147   19:00   0.00   52.7    76    0.4   350     0.6   837.0    0.00 
 147   19:10   0.00   52.0    77    0.3   357     0.5   838.0    0.00 
 147   19:20   0.00   51.5    78    0.4     1     0.7   838.0    0.00 
 147   19:30   0.00   50.9    79    0.3     6     0.5   838.0    0.00 
 147   19:40   0.00   50.5    80    0.4     4     0.7   838.0    0.00 
 147   19:50   0.00   50.3    81    0.3   351     0.5   838.0    0.00 
 147   20:00   0.00   50.0    82    0.3   344     0.6   838.0    0.00 
 147   20:10   0.00   49.5    83    0.3   359     0.6   838.0    0.00 
 147   20:20   0.00   49.2    84    0.2   332     0.5   838.0    0.00 
 147   20:30   0.00   48.7    84    0.3   350     0.6   838.0    0.00 
 147   20:40   0.00   48.3    84    0.3   358     0.5   838.0    0.00 
 147   20:50   0.00   48.0    83    0.3   360     0.6   838.0    0.00 
 147   21:00   0.00   47.6    82    0.3     2     0.5   838.0    0.00 
 147   21:10   0.00   47.2    81    0.3   350     0.5   838.0    0.00 
 147   21:20   0.00   46.9    81    0.3    17     0.6   838.0    0.00 
 147   21:30   0.00   46.6    81    0.3   340     0.7   838.0    0.00 
 147   21:40   0.00   46.4    82    0.4    25     0.8   838.0    0.00 
 147   21:50   0.00   46.3    84    0.3    18     0.6   839.0    0.00 
 147   22:00   0.00   46.2    85    0.3   355     0.5   839.0    0.00 
 147   22:10   0.00   46.0    86    0.3     9     0.5   839.0    0.00 
 147   22:20   0.00   45.9    87    0.3     9     0.5   839.0    0.00 
 147   22:30   0.00   45.7    87    0.3     5     0.5   839.0    0.00 
 147   22:40   0.00   45.6    87    0.3    18     0.5   839.0    0.00 
 147   22:50   0.00   45.7    86    0.2    14     0.4   839.0    0.00 
 147   23:00   0.00   45.5    86    0.2     7     0.5   839.0    0.00 
 147   23:10   0.00   45.4    86    0.4    32     0.6   839.0    0.00 
 147   23:20   0.00   45.2    86    0.2     8     0.4   838.0    0.00 
 147   23:30   0.00   45.0    86    0.3    20     0.5   838.0    0.00 
 147   23:40   0.00   44.9    86    0.2     9     0.4   838.0    0.00 
 147   23:50   0.00   44.6    86    0.3    18     0.4   838.0    0.00 
 148    0:00   0.00   44.4    85    0.3    18     0.4   838.0    0.00 
 148    0:10   0.00   44.0    83    0.3    17     0.5   838.0    0.00 
 148    0:20   0.00   43.7    82    0.3     8     0.5   838.0    0.00 
 148    0:30   0.00   43.4    81    0.3    17     0.5   838.0    0.00 
 148    0:40   0.00   43.0    80    0.3    28     0.5   838.0    0.00 
 148    0:50   0.00   42.8    78    0.2    18     0.3   838.0    0.00 
 148    1:00   0.00   42.6    78    0.3    32     0.5   838.0    0.00 
 148    1:10   0.00   42.5    77    0.2    17     0.5   838.0    0.00 
 148    1:20   0.00   42.1    76    0.3     5     0.4   838.0    0.00 
 148    1:30   0.00   41.8    76    0.3    28     0.5   838.0    0.00 
 148    1:40   0.00   41.7    74    0.3    11     0.4   837.0    0.00 
 148    1:50   0.00   41.5    75    0.2    10     0.4   837.0    0.00 
 148    2:00   0.00   41.5    78    0.3    29     0.7   837.0    0.00 
 148    2:10   0.00   41.7    78    0.3    32     0.6   837.0    0.00 
 148    2:20   0.00   42.0    79    0.3    19     0.4   837.0    0.00 
 148    2:30   0.00   42.1    77    0.3    22     0.5   837.0    0.00 
 148    2:40   0.00   42.1    75    0.3    13     0.5   837.0    0.00 
 148    2:50   0.00   42.0    74    0.3    24     0.5   837.0    0.00 
 148    3:00   0.00   42.0    75    0.2    14     0.4   837.0    0.00 
 148    3:10   0.00   42.1    77    0.3    29     0.5   837.0    0.00 
 148    3:20   0.00   42.0    78    0.2    17     0.4   837.0    0.00 
 148    3:30   0.00   42.1    80    0.3    25     0.5   837.0    0.00 
 148    3:40   0.00   42.2    81    0.3    26     0.5   837.0    0.00 
 148    3:50   0.00   42.3    82    0.3    31     0.5   837.0    0.00 

Return to James Reserve graphs page.


Western Regional Climate Center,wrcc@dri.edu